createdAt,value
2019-05-02T00:01:15.460Z,16.72
2019-05-02T00:03:46.841Z,16.67
2019-05-02T00:06:19.152Z,16.67
2019-05-02T00:08:52.089Z,16.70
2019-05-02T00:11:24.207Z,16.75
2019-05-02T00:13:55.227Z,16.84
2019-05-02T00:16:27.347Z,16.75
2019-05-02T00:18:59.513Z,16.63
2019-05-02T00:21:32.893Z,16.67
2019-05-02T00:24:04.235Z,16.59
2019-05-02T00:26:35.866Z,16.61
2019-05-02T00:29:09.795Z,16.40
2019-05-02T00:31:41.959Z,16.12
2019-05-02T00:34:11.981Z,16.20
2019-05-02T00:36:46.804Z,16.36
2019-05-02T00:39:18.475Z,16.27
2019-05-02T00:41:50.007Z,16.22
2019-05-02T00:44:22.347Z,16.28
2019-05-02T00:46:56.648Z,16.30
2019-05-02T00:49:30.747Z,16.33
2019-05-02T00:52:07.806Z,16.34
2019-05-02T00:54:38.013Z,16.37
2019-05-02T00:57:14.976Z,16.40
2019-05-02T00:59:45.588Z,16.34
2019-05-02T01:02:41.864Z,16.27
2019-05-02T01:05:15.320Z,16.24
2019-05-02T01:07:47.183Z,16.24
2019-05-02T01:10:21.347Z,16.30
2019-05-02T01:12:51.047Z,16.25
2019-05-02T01:15:21.304Z,16.31
2019-05-02T01:17:53.270Z,16.23
2019-05-02T01:20:27.724Z,16.10
2019-05-02T01:22:57.615Z,16.20
2019-05-02T01:25:28.207Z,16.15
2019-05-02T01:28:18.835Z,16.18
2019-05-02T01:31:28.288Z,16.20
2019-05-02T01:34:27.601Z,16.24
2019-05-02T01:37:05.318Z,16.15
2019-05-02T01:39:37.965Z,16.12
2019-05-02T01:42:09.906Z,15.94
2019-05-02T01:44:43.515Z,15.96
2019-05-02T01:47:14.021Z,16.09
2019-05-02T01:49:46.119Z,16.02
2019-05-02T01:55:17.094Z,15.89
2019-05-02T01:57:50.066Z,15.98
2019-05-02T02:00:21.591Z,15.97
2019-05-02T02:02:53.807Z,15.92
2019-05-02T02:05:27.652Z,15.99
2019-05-02T02:07:57.440Z,15.93
2019-05-02T02:10:29.497Z,15.95
2019-05-02T02:13:04.701Z,15.89
2019-05-02T02:15:33.766Z,15.81
2019-05-02T02:18:05.191Z,15.79
2019-05-02T02:20:52.166Z,15.80
2019-05-02T02:23:31.954Z,15.79
2019-05-02T02:26:11.402Z,15.72
2019-05-02T02:28:39.529Z,15.67
2019-05-02T02:31:13.067Z,15.62
2019-05-02T02:33:48.114Z,15.26
2019-05-02T02:36:16.413Z,15.60
2019-05-02T02:38:47.727Z,15.55
2019-05-02T02:41:22.574Z,15.64
2019-05-02T02:44:13.195Z,15.50
2019-05-02T02:46:45.450Z,15.40
2019-05-02T02:49:21.237Z,15.60
2019-05-02T02:51:50.935Z,15.62
2019-05-02T02:54:22.681Z,15.64
2019-05-02T02:56:56.166Z,15.53
2019-05-02T02:59:28.194Z,15.62
2019-05-02T03:02:08.983Z,15.34
2019-05-02T03:04:33.435Z,15.61
2019-05-02T03:07:08.047Z,15.72
2019-05-02T03:09:40.804Z,15.70
2019-05-02T03:12:29.091Z,15.75
2019-05-02T03:15:03.127Z,15.83
2019-05-02T03:17:34.869Z,15.85
2019-05-02T03:20:06.775Z,15.63
2019-05-02T03:22:41.867Z,15.77
2019-05-02T03:25:18.372Z,15.77
2019-05-02T03:27:48.813Z,15.90
2019-05-02T03:30:32.259Z,15.73
2019-05-02T03:33:06.452Z,15.59
2019-05-02T03:35:41.885Z,15.69
2019-05-02T03:38:03.857Z,15.77
2019-05-02T03:40:39.077Z,15.71
2019-05-02T03:43:11.259Z,15.85
2019-05-02T03:45:43.191Z,15.83
2019-05-02T03:48:18.457Z,15.60
2019-05-02T03:50:46.450Z,15.76
2019-05-02T03:53:25.061Z,15.87
2019-05-02T03:55:53.911Z,15.55
2019-05-02T03:58:26.956Z,15.89
2019-05-02T04:01:02.080Z,15.83
2019-05-02T04:03:33.849Z,15.97
2019-05-02T04:06:05.126Z,16.02
2019-05-02T04:08:37.312Z,16.07
2019-05-02T04:11:26.529Z,15.99
2019-05-02T04:13:58.485Z,16.01
2019-05-02T04:16:31.010Z,16.14
2019-05-02T04:19:07.333Z,16.19
2019-05-02T04:21:39.719Z,16.14
2019-05-02T04:24:15.678Z,16.08
2019-05-02T04:26:54.299Z,16.23
2019-05-02T04:29:24.436Z,16.26
2019-05-02T04:31:56.422Z,16.19
2019-05-02T04:34:27.075Z,16.24
2019-05-02T04:37:01.177Z,16.15
2019-05-02T04:39:31.487Z,16.25
2019-05-02T04:42:11.628Z,16.27
2019-05-02T04:44:46.348Z,16.17
2019-05-02T04:47:17.490Z,16.24
2019-05-02T04:49:51.860Z,16.26
2019-05-02T04:52:21.388Z,16.23
2019-05-02T04:55:08.002Z,16.11
2019-05-02T04:57:36.855Z,16.24
2019-05-02T05:00:08.453Z,16.14
2019-05-02T05:02:39.965Z,16.05
2019-05-02T05:05:10.563Z,15.57
2019-05-02T05:07:46.255Z,15.93
2019-05-02T05:10:14.617Z,16.13
2019-05-02T05:12:48.011Z,15.88
2019-05-02T05:15:35.823Z,16.04
2019-05-02T05:17:53.622Z,16.24
2019-05-02T05:20:25.106Z,16.33
2019-05-02T05:22:58.746Z,16.29
2019-05-02T05:25:37.919Z,16.55
2019-05-02T05:28:09.040Z,16.56
2019-05-02T05:30:45.317Z,16.65
2019-05-02T05:33:13.473Z,16.71
2019-05-02T05:35:48.756Z,16.65
2019-05-02T05:38:22.944Z,16.75
2019-05-02T05:40:55.376Z,16.76
2019-05-02T05:43:27.540Z,16.67
2019-05-02T05:46:09.241Z,16.43
2019-05-02T05:48:37.139Z,15.58
2019-05-02T05:51:07.263Z,16.10
2019-05-02T05:53:37.859Z,15.98
2019-05-02T05:56:11.448Z,15.30
2019-05-02T05:58:48.153Z,15.84
2019-05-02T06:01:20.355Z,16.00
2019-05-02T06:03:52.594Z,16.10
2019-05-02T06:06:24.577Z,15.96
2019-05-02T06:09:01.538Z,16.03
2019-05-02T06:11:33.139Z,15.49
2019-05-02T06:14:03.333Z,15.95
2019-05-02T06:16:35.589Z,16.10
2019-05-02T06:19:06.510Z,16.18
2019-05-02T06:21:39.975Z,16.14
2019-05-02T06:24:10.922Z,15.91
2019-05-02T06:26:44.664Z,15.87
2019-05-02T06:29:18.728Z,15.72
2019-05-02T06:31:52.954Z,15.77
2019-05-02T06:34:23.152Z,15.71
2019-05-02T06:36:53.331Z,16.02
2019-05-02T06:39:31.528Z,15.47
2019-05-02T06:42:01.585Z,16.18
2019-05-02T06:44:32.661Z,16.52
2019-05-02T06:47:05.729Z,16.52
2019-05-02T06:49:38.482Z,16.75
2019-05-02T06:52:10.483Z,16.68
2019-05-02T06:54:41.684Z,16.85
2019-05-02T06:57:19.132Z,17.08
2019-05-02T06:59:54.660Z,16.73
2019-05-02T07:02:28.308Z,16.85
2019-05-02T07:05:00.817Z,16.94
2019-05-02T07:07:37.107Z,16.39
2019-05-02T07:10:09.209Z,16.89
2019-05-02T07:12:46.138Z,16.19
2019-05-02T07:15:43.477Z,15.85
2019-05-02T07:18:15.066Z,15.91
2019-05-02T07:20:47.306Z,16.00
2019-05-02T07:23:18.371Z,16.09
2019-05-02T07:25:53.026Z,15.64
2019-05-02T07:28:28.947Z,15.80
2019-05-02T07:31:00.320Z,15.11
2019-05-02T07:33:37.013Z,15.72
2019-05-02T07:36:05.933Z,15.65
2019-05-02T07:38:36.542Z,16.04
2019-05-02T07:41:08.333Z,16.47
2019-05-02T07:43:40.748Z,16.34
2019-05-02T07:46:16.273Z,16.49
2019-05-02T07:48:49.044Z,16.26
2019-05-02T07:51:21.261Z,15.81
2019-05-02T07:53:55.491Z,15.82
2019-05-02T07:56:27.930Z,15.74
2019-05-02T07:59:04.601Z,15.84
2019-05-02T08:01:36.971Z,15.86
2019-05-02T08:04:11.326Z,16.02
2019-05-02T08:06:44.652Z,16.39
2019-05-02T08:09:16.338Z,16.32
2019-05-02T08:11:49.715Z,16.05
2019-05-02T08:14:24.237Z,16.63
2019-05-02T08:17:05.289Z,16.20
2019-05-02T08:19:49.969Z,16.51
2019-05-02T08:22:24.558Z,16.58
2019-05-02T08:24:55.878Z,16.13
2019-05-02T08:27:41.465Z,16.35
2019-05-02T08:30:24.955Z,17.08
2019-05-02T08:33:01.467Z,17.31
2019-05-02T08:35:32.758Z,16.84
2019-05-02T08:38:03.938Z,16.83
2019-05-02T08:40:34.435Z,16.63
2019-05-02T08:43:09.006Z,17.26
2019-05-02T08:45:39.619Z,17.58
2019-05-02T08:48:12.802Z,17.81
2019-05-02T08:50:43.373Z,17.85
2019-05-02T08:53:19.679Z,18.20
2019-05-02T08:55:47.726Z,18.52
2019-05-02T08:58:18.828Z,19.02
2019-05-02T09:00:50.496Z,18.80
2019-05-02T09:03:25.491Z,19.27
2019-05-02T09:06:05.506Z,19.19
2019-05-02T09:08:30.868Z,19.13
2019-05-02T09:11:02.722Z,19.50
2019-05-02T09:13:34.868Z,19.15
2019-05-02T09:16:06.126Z,18.60
2019-05-02T09:18:50.519Z,19.06
2019-05-02T09:21:16.821Z,19.28
2019-05-02T09:23:51.740Z,19.27
2019-05-02T09:26:35.202Z,19.42
2019-05-02T09:29:01.686Z,19.65
2019-05-02T09:31:36.819Z,19.83
2019-05-02T09:34:08.759Z,19.45
2019-05-02T09:36:38.951Z,19.70
2019-05-02T09:39:13.003Z,19.89
2019-05-02T09:41:45.644Z,20.02
2019-05-02T09:44:18.743Z,20.14
2019-05-02T09:46:53.109Z,18.93
2019-05-02T09:49:22.060Z,19.37
2019-05-02T09:51:59.227Z,20.03
2019-05-02T09:54:27.087Z,19.65
2019-05-02T09:56:57.865Z,20.12
2019-05-02T09:59:33.429Z,20.45
2019-05-02T10:02:09.381Z,20.87
2019-05-02T10:04:44.117Z,21.07
2019-05-02T10:07:15.947Z,21.07
2019-05-02T10:09:49.381Z,21.29
2019-05-02T10:12:22.983Z,20.86
2019-05-02T10:14:55.255Z,20.56
2019-05-02T10:17:27.958Z,20.60
2019-05-02T10:19:59.281Z,20.60
2019-05-02T10:22:32.321Z,20.16
2019-05-02T10:25:04.192Z,20.32
2019-05-02T10:27:38.461Z,20.52
2019-05-02T10:30:14.831Z,20.74
2019-05-02T10:32:47.155Z,20.98
2019-05-02T10:35:19.555Z,20.67
2019-05-02T10:37:49.719Z,19.84
2019-05-02T10:40:22.528Z,19.95
2019-05-02T10:42:54.106Z,20.43
2019-05-02T10:45:25.598Z,20.83
2019-05-02T10:47:57.767Z,20.04
2019-05-02T10:50:36.295Z,20.65
2019-05-02T10:53:11.876Z,21.32
2019-05-02T10:55:43.232Z,21.45
2019-05-02T10:58:14.441Z,21.41
2019-05-02T11:00:45.591Z,22.08
2019-05-02T11:03:46.190Z,21.86
2019-05-02T11:06:12.594Z,22.28
2019-05-02T11:08:46.113Z,22.79
2019-05-02T11:11:21.918Z,23.15
2019-05-02T11:14:05.602Z,21.92
2019-05-02T11:16:43.914Z,22.99
2019-05-02T11:19:33.884Z,23.10
2019-05-02T11:22:06.979Z,21.26
2019-05-02T11:24:41.700Z,22.08
2019-05-02T11:27:14.627Z,22.44
2019-05-02T11:29:46.699Z,22.34
2019-05-02T11:32:16.987Z,22.40
2019-05-02T11:34:48.214Z,22.27
2019-05-02T11:37:19.429Z,22.84
2019-05-02T11:40:04.463Z,23.21
2019-05-02T11:42:34.349Z,23.65
2019-05-02T11:45:05.980Z,24.12
2019-05-02T11:47:37.047Z,24.25
2019-05-02T11:50:08.735Z,24.98
2019-05-02T11:52:39.319Z,24.44
2019-05-02T11:55:13.099Z,24.75
2019-05-02T11:57:45.023Z,24.21
2019-05-02T12:00:17.677Z,24.79
2019-05-02T12:02:58.579Z,25.32
2019-05-02T12:05:39.180Z,25.89
2019-05-02T12:08:12.328Z,25.97
2019-05-02T12:10:42.980Z,26.13
2019-05-02T12:13:16.111Z,25.30
2019-05-02T12:15:51.888Z,25.47
2019-05-02T12:18:25.626Z,24.79
2019-05-02T12:20:57.186Z,25.48
2019-05-02T12:23:27.737Z,25.23
2019-05-02T12:26:05.978Z,24.86
2019-05-02T12:28:38.992Z,24.57
2019-05-02T12:31:22.691Z,24.66
2019-05-02T12:33:53.532Z,24.78
2019-05-02T12:36:27.207Z,24.47
2019-05-02T12:38:58.298Z,24.77
2019-05-02T12:41:28.905Z,23.77
2019-05-02T12:43:59.106Z,24.79
2019-05-02T12:46:33.101Z,25.24
2019-05-02T12:49:03.945Z,25.28
2019-05-02T12:51:34.211Z,24.85
2019-05-02T12:54:05.551Z,24.45
2019-05-02T12:56:37.034Z,24.75
2019-05-02T12:59:08.188Z,24.94
2019-05-02T13:01:42.026Z,24.92
2019-05-02T13:04:14.176Z,24.55
2019-05-02T13:06:46.252Z,24.70
2019-05-02T13:09:17.190Z,25.20
2019-05-02T13:12:02.799Z,25.55
2019-05-02T13:14:33.283Z,25.32
2019-05-02T13:17:05.953Z,24.45
2019-05-02T13:19:41.222Z,25.27
2019-05-02T13:22:21.800Z,25.52
2019-05-02T13:24:58.338Z,26.38
2019-05-02T13:27:32.210Z,26.40
2019-05-02T13:30:03.408Z,26.49
2019-05-02T13:32:42.687Z,26.35
2019-05-02T13:35:26.237Z,25.18
2019-05-02T13:37:59.906Z,25.13
2019-05-02T13:40:35.882Z,25.34
2019-05-02T13:43:07.405Z,24.73
2019-05-02T13:46:09.380Z,25.44
2019-05-02T13:48:43.025Z,25.76
2019-05-02T13:51:14.589Z,25.72
2019-05-02T13:53:57.300Z,26.03
2019-05-02T13:56:46.291Z,26.16
2019-05-02T13:59:18.738Z,26.41
2019-05-02T14:01:52.202Z,26.70
2019-05-02T14:04:24.147Z,26.96
2019-05-02T14:06:58.960Z,27.62
2019-05-02T14:09:53.046Z,27.79
2019-05-02T14:12:46.651Z,27.88
2019-05-02T14:15:22.120Z,27.82
2019-05-02T14:17:56.351Z,26.62
2019-05-02T14:20:28.757Z,26.74
2019-05-02T14:23:02.270Z,25.80
2019-05-02T14:25:34.480Z,25.66
2019-05-02T14:28:08.233Z,25.63
2019-05-02T14:30:41.962Z,25.47
2019-05-02T14:33:19.958Z,25.42
2019-05-02T14:35:54.308Z,25.33
2019-05-02T14:38:32.076Z,24.97
2019-05-02T14:41:15.901Z,24.65
2019-05-02T14:44:05.215Z,24.51
2019-05-02T14:46:39.263Z,24.81
2019-05-02T14:49:07.054Z,24.95
2019-05-02T14:51:37.745Z,25.46
2019-05-02T14:54:11.923Z,25.72
2019-05-02T14:57:01.966Z,26.10
2019-05-02T14:59:33.363Z,25.97
2019-05-02T15:02:07.949Z,25.75
2019-05-02T15:04:44.597Z,25.70
2019-05-02T15:07:17.667Z,25.51
2019-05-02T15:09:47.697Z,25.35
2019-05-02T15:12:19.235Z,24.80
2019-05-02T15:14:57.504Z,24.71
2019-05-02T15:17:28.055Z,24.56
2019-05-02T15:19:58.227Z,24.26
2019-05-02T15:22:33.095Z,24.14
2019-05-02T15:25:07.891Z,24.00
2019-05-02T15:27:41.986Z,23.74
2019-05-02T15:30:09.924Z,23.79
2019-05-02T15:32:52.779Z,23.24
2019-05-02T15:35:52.719Z,23.50
2019-05-02T15:38:27.998Z,23.56
2019-05-02T15:41:06.976Z,23.98
2019-05-02T15:43:39.299Z,24.00
2019-05-02T15:46:15.662Z,24.25
2019-05-02T15:48:43.809Z,24.26
2019-05-02T15:51:14.444Z,24.19
2019-05-02T15:54:05.381Z,24.10
2019-05-02T15:56:27.727Z,24.05
2019-05-02T15:59:04.230Z,23.52
2019-05-02T16:01:53.335Z,23.36
2019-05-02T16:04:26.939Z,23.06
2019-05-02T16:07:06.777Z,22.95
2019-05-02T16:09:37.301Z,22.48
2019-05-02T16:12:08.435Z,22.19
2019-05-02T16:14:42.706Z,21.58
2019-05-02T16:17:17.700Z,21.23
2019-05-02T16:19:58.647Z,20.95
2019-05-02T16:22:26.367Z,20.83
2019-05-02T16:25:01.635Z,20.71
2019-05-02T16:27:47.057Z,20.44
2019-05-02T16:30:22.338Z,20.12
2019-05-02T16:32:59.268Z,19.84
2019-05-02T16:35:33.108Z,19.89
2019-05-02T16:38:04.367Z,19.48
2019-05-02T16:40:35.688Z,19.55
2019-05-02T16:43:12.195Z,19.73
2019-05-02T16:45:43.935Z,18.66
2019-05-02T16:48:15.654Z,19.05
2019-05-02T16:50:46.233Z,18.98
2019-05-02T16:53:17.147Z,19.08
2019-05-02T16:55:49.741Z,19.43
2019-05-02T16:58:21.354Z,19.43
2019-05-02T17:00:58.037Z,19.11
2019-05-02T17:03:28.649Z,19.41
2019-05-02T17:06:01.664Z,19.50
2019-05-02T17:08:57.344Z,19.13
2019-05-02T17:11:35.961Z,19.31
2019-05-02T17:14:11.990Z,18.93
2019-05-02T17:16:47.075Z,19.08
2019-05-02T17:19:26.115Z,19.29
2019-05-02T17:21:57.395Z,18.90
2019-05-02T17:24:28.750Z,19.08
2019-05-02T17:27:03.489Z,19.16
2019-05-02T17:29:35.137Z,19.29
2019-05-02T17:32:08.928Z,19.30
2019-05-02T17:34:42.556Z,19.25
2019-05-02T17:37:14.037Z,19.30
2019-05-02T17:39:47.513Z,19.22
2019-05-02T17:42:22.355Z,19.27
2019-05-02T17:44:51.813Z,19.12
2019-05-02T17:47:23.248Z,19.27
2019-05-02T17:49:57.014Z,19.24
2019-05-02T17:52:50.552Z,19.17
2019-05-02T17:55:21.494Z,19.18
2019-05-02T17:57:54.792Z,19.17
2019-05-02T18:00:30.029Z,19.05
2019-05-02T18:03:02.519Z,18.97
2019-05-02T18:05:35.671Z,18.98
2019-05-02T18:08:10.967Z,19.13
2019-05-02T18:10:41.805Z,19.05
2019-05-02T18:13:17.559Z,19.05
2019-05-02T18:15:50.524Z,19.17
2019-05-02T18:18:24.249Z,19.11
2019-05-02T18:20:55.659Z,19.23
2019-05-02T18:23:28.810Z,19.08
2019-05-02T18:26:04.411Z,18.90
2019-05-02T18:28:47.045Z,19.08
2019-05-02T18:31:17.319Z,19.04
2019-05-02T18:33:48.019Z,18.81
2019-05-02T18:36:23.903Z,18.80
2019-05-02T18:38:54.252Z,18.92
2019-05-02T18:41:23.006Z,18.78
2019-05-02T18:43:55.084Z,18.78
2019-05-02T18:46:25.649Z,18.54
2019-05-02T18:48:58.324Z,18.82
2019-05-02T18:51:32.079Z,18.78
2019-05-02T18:54:07.356Z,18.79
2019-05-02T18:56:42.828Z,18.85
2019-05-02T18:59:14.154Z,18.82
2019-05-02T19:01:47.417Z,18.83
2019-05-02T19:04:17.163Z,18.69
2019-05-02T19:06:49.097Z,18.33
2019-05-02T19:09:25.006Z,18.48
2019-05-02T19:12:04.964Z,18.60
2019-05-02T19:14:28.228Z,18.65
2019-05-02T19:17:07.289Z,18.32
2019-05-02T19:19:38.898Z,17.95
2019-05-02T19:22:13.216Z,18.45
2019-05-02T19:24:42.434Z,18.54
2019-05-02T19:27:14.279Z,18.65
2019-05-02T19:29:49.480Z,18.45
2019-05-02T19:32:26.954Z,18.51
2019-05-02T19:34:57.820Z,18.55
2019-05-02T19:37:31.630Z,18.40
2019-05-02T19:40:03.085Z,18.48
2019-05-02T19:42:35.075Z,18.51
2019-05-02T19:45:11.484Z,18.64
2019-05-02T19:47:39.488Z,18.68
2019-05-02T19:50:41.461Z,18.68
2019-05-02T19:53:14.858Z,18.64
2019-05-02T19:55:43.874Z,18.80
2019-05-02T19:58:15.126Z,18.81
2019-05-02T20:00:46.649Z,18.23
2019-05-02T20:03:22.024Z,18.66
2019-05-02T20:05:56.682Z,18.54
2019-05-02T20:08:28.281Z,18.63
2019-05-02T20:10:58.644Z,18.62
2019-05-02T20:13:32.354Z,18.66
2019-05-02T20:16:11.989Z,18.79
2019-05-02T20:18:46.983Z,18.54
2019-05-02T20:21:27.893Z,18.06
2019-05-02T20:23:57.798Z,18.29
2019-05-02T20:26:29.823Z,18.18
2019-05-02T20:29:02.071Z,18.28
2019-05-02T20:31:33.225Z,18.20
2019-05-02T20:34:04.557Z,18.04
2019-05-02T20:36:37.278Z,18.25
2019-05-02T20:39:11.769Z,18.34
2019-05-02T20:41:42.831Z,18.35
2019-05-02T20:44:14.330Z,18.17
2019-05-02T20:46:46.755Z,17.96
2019-05-02T20:49:17.984Z,18.08
2019-05-02T20:51:48.297Z,18.19
2019-05-02T20:54:19.205Z,17.97
2019-05-02T20:56:49.430Z,17.97
2019-05-02T20:59:21.707Z,17.97
2019-05-02T21:01:53.850Z,18.01
2019-05-02T21:04:32.080Z,17.66
2019-05-02T21:07:16.194Z,17.94
2019-05-02T21:09:52.564Z,17.59
2019-05-02T21:12:22.834Z,17.87
2019-05-02T21:14:55.296Z,17.98
2019-05-02T21:17:30.157Z,17.84
2019-05-02T21:20:01.944Z,17.91
2019-05-02T21:22:33.350Z,17.69
2019-05-02T21:25:03.986Z,17.92
2019-05-02T21:27:34.662Z,17.73
2019-05-02T21:30:07.011Z,17.77
2019-05-02T21:32:39.299Z,17.87
2019-05-02T21:35:11.911Z,17.71
2019-05-02T21:37:42.551Z,17.77
2019-05-02T21:40:17.139Z,17.81
2019-05-02T21:42:48.655Z,17.74
2019-05-02T21:45:22.156Z,17.64
2019-05-02T21:47:54.010Z,17.68
2019-05-02T21:50:39.731Z,17.52
2019-05-02T21:53:38.725Z,17.48
2019-05-02T21:56:18.863Z,17.28
2019-05-02T21:59:05.593Z,17.26
2019-05-02T22:01:44.993Z,16.86
2019-05-02T22:04:19.282Z,17.10
2019-05-02T22:06:54.135Z,17.03
2019-05-02T22:09:26.505Z,17.06
2019-05-02T22:11:57.835Z,17.03
2019-05-02T22:14:28.653Z,16.59
2019-05-02T22:17:02.339Z,16.67
2019-05-02T22:19:35.656Z,16.71
2019-05-02T22:22:07.252Z,16.68
2019-05-02T22:24:39.756Z,16.54
2019-05-02T22:27:12.381Z,16.53
2019-05-02T22:29:43.227Z,16.53
2019-05-02T22:32:15.169Z,16.45
2019-05-02T22:34:49.341Z,16.45
2019-05-02T22:37:24.967Z,16.46
2019-05-02T22:40:03.664Z,16.26
2019-05-02T22:42:33.399Z,16.33
2019-05-02T22:45:05.268Z,16.27
2019-05-02T22:47:38.742Z,16.32
2019-05-02T22:50:09.701Z,16.37
2019-05-02T22:52:41.565Z,16.12
2019-05-02T22:55:12.285Z,16.19
2019-05-02T22:57:43.965Z,16.13
2019-05-02T23:00:16.304Z,16.22
2019-05-02T23:02:47.341Z,16.31
2019-05-02T23:05:20.748Z,16.24
2019-05-02T23:07:52.705Z,15.52
2019-05-02T23:10:27.704Z,16.08
2019-05-02T23:13:02.312Z,16.13
2019-05-02T23:15:33.171Z,16.16
2019-05-02T23:18:04.779Z,16.20
2019-05-02T23:20:42.188Z,15.98
2019-05-02T23:23:16.271Z,16.19
2019-05-02T23:26:08.343Z,16.11
2019-05-02T23:28:42.809Z,16.15
2019-05-02T23:31:14.217Z,16.04
2019-05-02T23:34:02.075Z,16.16
2019-05-02T23:36:34.353Z,16.17
2019-05-02T23:39:08.078Z,16.26
2019-05-02T23:41:42.075Z,16.20
2019-05-02T23:44:13.879Z,16.07
2019-05-02T23:46:44.432Z,16.06
2019-05-02T23:49:15.858Z,16.30
2019-05-02T23:51:49.295Z,16.39
2019-05-02T23:54:21.904Z,16.25
2019-05-02T23:56:52.426Z,16.34
2019-05-02T23:59:23.562Z,16.49
